Time;durP1;ratioP1;P1;durP2;ratioP2;P2;SDS_P1;SDS_P2;PMS_P1;PMS_P2;Temp;Humidity;BMP_temperature;BMP_pressure;BME280_temperature;BME280_humidity;BME280_pressure;Samples;Min_cycle;Max_cycle;Signal;HPM_P1;HPM_P2
2021/04/20 00:00:36;;;;;;;33.50;26.90;;;7.10;99.90;;;;;;4944108;29;20217;-86
2021/04/20 00:03:03;;;;;;;32.47;24.80;;;7.00;99.90;;;;;;4944376;29;20220;-86
2021/04/20 00:05:30;;;;;;;31.50;26.98;;;7.00;99.90;;;;;;4943690;29;20690;-85
2021/04/20 00:07:56;;;;;;;30.30;24.50;;;7.00;99.90;;;;;;4944286;29;20237;-85
2021/04/20 00:10:22;;;;;;;27.63;23.77;;;7.00;99.90;;;;;;4943753;29;20213;-86
2021/04/20 00:12:50;;;;;;;33.33;24.48;;;7.00;99.90;;;;;;4944020;29;20210;-85
2021/04/20 00:15:20;;;;;;;33.53;24.58;;;7.00;99.90;;;;;;4948320;29;20212;-82
2021/04/20 00:17:47;;;;;;;31.02;24.27;;;6.90;99.90;;;;;;4958860;29;20269;-82
2021/04/20 00:20:14;;;;;;;32.05;25.25;;;6.90;99.90;;;;;;4959047;29;20213;-82
2021/04/20 00:22:41;;;;;;;30.77;24.10;;;6.80;99.90;;;;;;4953899;29;20210;-85
2021/04/20 00:25:08;;;;;;;30.33;24.42;;;6.80;99.90;;;;;;4943331;29;20273;-86
2021/04/20 00:27:34;;;;;;;34.47;26.63;;;6.70;99.90;;;;;;4942978;29;20229;-86
2021/04/20 00:30:02;;;;;;;31.90;26.15;;;6.70;99.90;;;;;;4943014;29;20201;-86
2021/04/20 00:32:28;;;;;;;34.40;24.88;;;6.60;99.90;;;;;;4942648;29;20284;-85
2021/04/20 00:34:55;;;;;;;30.25;23.52;;;6.60;99.90;;;;;;4943145;29;20210;-85
2021/04/20 00:37:21;;;;;;;31.23;24.13;;;6.50;99.90;;;;;;4943046;29;20229;-87
2021/04/20 00:39:47;;;;;;;30.38;23.77;;;6.50;99.90;;;;;;4942555;29;20216;-86
2021/04/20 00:42:13;;;;;;;28.60;24.42;;;6.40;99.90;;;;;;4943327;29;20205;-87
2021/04/20 00:44:40;;;;;;;33.05;23.00;;;6.40;99.90;;;;;;4943593;29;20221;-85
2021/04/20 00:47:07;;;;;;;25.95;22.10;;;6.30;99.90;;;;;;4943315;29;20221;-83
2021/04/20 00:49:33;;;;;;;29.48;24.25;;;6.30;99.90;;;;;;4943576;29;20675;-86
2021/04/20 00:51:59;;;;;;;26.33;22.63;;;6.20;99.90;;;;;;4943132;29;20245;-86
2021/04/20 00:54:26;;;;;;;27.33;21.85;;;6.20;99.90;;;;;;4943472;29;20216;-86
2021/04/20 00:56:52;;;;;;;28.52;21.00;;;6.20;99.90;;;;;;4943626;29;20247;-84
2021/04/20 00:59:20;;;;;;;27.15;22.05;;;6.10;99.90;;;;;;4943424;29;20209;-86
2021/04/20 01:01:47;;;;;;;30.35;24.80;;;6.10;99.90;;;;;;4943002;29;20208;-86
2021/04/20 01:04:15;;;;;;;26.50;22.52;;;6.00;99.90;;;;;;4951503;29;20202;-81
2021/04/20 01:06:42;;;;;;;29.27;23.90;;;6.00;99.90;;;;;;4961431;29;20229;-80
2021/04/20 01:09:09;;;;;;;26.95;22.75;;;6.00;99.90;;;;;;4961729;29;20206;-81
2021/04/20 01:11:36;;;;;;;31.13;21.48;;;5.90;99.90;;;;;;4961547;28;20204;-80
2021/04/20 01:14:04;;;;;;;25.48;22.30;;;5.90;99.90;;;;;;4945612;29;20566;-86
2021/04/20 01:16:30;;;;;;;24.58;20.67;;;5.90;99.90;;;;;;4943800;29;20285;-86
2021/04/20 01:18:57;;;;;;;28.85;21.60;;;5.80;99.90;;;;;;4943471;29;20213;-84
2021/04/20 01:21:24;;;;;;;25.92;23.02;;;5.80;99.90;;;;;;4943347;29;20217;-86
2021/04/20 01:23:57;;;;;;;25.85;23.00;;;5.80;99.90;;;;;;4943607;29;20621;-86
2021/04/20 01:26:27;;;;;;;24.25;21.75;;;5.70;99.90;;;;;;4943596;29;20230;-84
2021/04/20 01:28:55;;;;;;;27.48;22.77;;;5.70;99.90;;;;;;4943325;29;20214;-87
2021/04/20 01:31:21;;;;;;;29.58;24.80;;;5.70;99.90;;;;;;4944478;29;20348;-84
2021/04/20 01:33:48;;;;;;;31.90;23.83;;;5.60;99.90;;;;;;4943640;29;20224;-86
2021/04/20 01:36:21;;;;;;;26.65;23.85;;;5.50;99.90;;;;;;4943563;29;20735;-87
2021/04/20 01:38:48;;;;;;;30.08;24.58;;;5.50;99.90;;;;;;4943849;29;20230;-84
2021/04/20 01:41:16;;;;;;;30.27;24.20;;;5.50;99.90;;;;;;4943950;29;20210;-86
2021/04/20 01:43:43;;;;;;;33.38;25.35;;;5.40;99.90;;;;;;4942986;29;20210;-85
2021/04/20 01:46:10;;;;;;;36.80;27.30;;;5.40;99.90;;;;;;4943129;29;20234;-84
2021/04/20 01:48:36;;;;;;;41.63;24.83;;;5.40;99.90;;;;;;4942825;29;20253;-85
2021/04/20 01:51:03;;;;;;;65.68;28.60;;;5.40;99.90;;;;;;4942601;29;20221;-87
2021/04/20 01:53:31;;;;;;;42.70;26.60;;;5.40;99.90;;;;;;4942034;29;20210;-86
2021/04/20 01:55:58;;;;;;;32.08;23.73;;;5.40;99.90;;;;;;4942676;29;20364;-86
2021/04/20 01:58:26;;;;;;;43.70;30.25;;;5.50;99.90;;;;;;4942786;29;20230;-87
2021/04/20 02:00:54;;;;;;;32.38;26.08;;;5.50;99.90;;;;;;4942866;29;20301;-85
2021/04/20 02:03:21;;;;;;;31.95;24.65;;;5.50;99.90;;;;;;4942710;29;20578;-84
2021/04/20 02:05:47;;;;;;;34.45;26.23;;;5.50;99.90;;;;;;4942580;29;20225;-86
2021/04/20 02:08:14;;;;;;;36.60;27.38;;;5.60;99.90;;;;;;4942629;29;20202;-83
2021/04/20 02:10:41;;;;;;;38.25;29.73;;;5.60;99.90;;;;;;4942630;29;20205;-87
2021/04/20 02:13:07;;;;;;;48.17;30.42;;;5.60;99.90;;;;;;4942131;29;20911;-85
2021/04/20 02:15:34;;;;;;;63.72;30.98;;;5.60;99.90;;;;;;4941671;29;20672;-84
2021/04/20 02:18:02;;;;;;;42.25;32.20;;;5.60;99.90;;;;;;4942517;29;20723;-84
2021/04/20 02:20:29;;;;;;;35.97;26.65;;;5.70;99.90;;;;;;4941661;29;20233;-83
2021/04/20 02:22:56;;;;;;;48.13;29.63;;;5.70;99.90;;;;;;4941019;29;20212;-85
2021/04/20 02:25:24;;;;;;;34.80;27.77;;;5.80;99.90;;;;;;4941070;29;20269;-85
2021/04/20 02:27:51;;;;;;;46.55;30.67;;;5.80;99.90;;;;;;4941889;29;20233;-86
2021/04/20 02:30:18;;;;;;;38.65;28.88;;;5.90;99.90;;;;;;4941684;29;20213;-87
2021/04/20 02:32:45;;;;;;;80.60;28.55;;;5.90;99.90;;;;;;4941952;29;20218;-85
2021/04/20 02:35:15;;;;;;;35.63;26.48;;;5.90;99.90;;;;;;4942060;29;20273;-87
2021/04/20 02:37:42;;;;;;;38.88;27.00;;;5.90;99.90;;;;;;4942322;29;20229;-86
2021/04/20 02:40:11;;;;;;;52.65;29.98;;;6.00;99.90;;;;;;4943017;29;20202;-84
2021/04/20 02:42:39;;;;;;;43.33;31.70;;;5.90;99.90;;;;;;4941739;29;20582;-83
2021/04/20 02:45:07;;;;;;;37.75;25.98;;;5.90;99.90;;;;;;4942318;29;20213;-86
2021/04/20 02:47:34;;;;;;;70.57;28.92;;;5.90;99.90;;;;;;4942185;29;20241;-86
2021/04/20 02:50:01;;;;;;;98.93;36.70;;;6.00;99.90;;;;;;4942746;29;20213;-85
2021/04/20 02:52:29;;;;;;;101.57;37.83;;;5.90;99.90;;;;;;4941701;29;20216;-87
2021/04/20 02:54:55;;;;;;;67.03;30.67;;;5.90;99.90;;;;;;4941407;29;20210;-86
2021/04/20 02:57:23;;;;;;;32.03;24.98;;;5.80;99.90;;;;;;4941784;29;20229;-86
2021/04/20 02:59:49;;;;;;;99.38;30.67;;;5.90;99.90;;;;;;4942058;29;20221;-85
2021/04/20 03:02:17;;;;;;;44.90;26.02;;;5.80;99.90;;;;;;4942117;29;20210;-87
2021/04/20 03:04:44;;;;;;;42.47;25.25;;;5.80;99.90;;;;;;4941888;29;20213;-86
2021/04/20 03:07:13;;;;;;;102.82;29.92;;;5.80;99.90;;;;;;4942003;29;20225;-87
2021/04/20 03:09:41;;;;;;;53.80;25.40;;;5.80;99.90;;;;;;4941928;29;20217;-86
2021/04/20 03:12:08;;;;;;;33.88;24.13;;;5.80;99.90;;;;;;4941546;29;20210;-83
2021/04/20 03:14:36;;;;;;;48.05;27.52;;;5.70;99.90;;;;;;4941619;29;20243;-86
2021/04/20 03:17:03;;;;;;;78.80;31.20;;;5.70;99.90;;;;;;4941489;29;20226;-87
2021/04/20 03:19:29;;;;;;;65.15;27.50;;;5.70;99.90;;;;;;4942190;29;20216;-86
2021/04/20 03:21:56;;;;;;;128.68;33.40;;;5.60;99.90;;;;;;4941368;29;20683;-85
2021/04/20 03:24:55;;;;;;;57.08;28.65;;;5.40;99.90;;;;;;4941702;29;20699;-83
2021/04/20 03:27:22;;;;;;;45.88;24.77;;;5.30;99.90;;;;;;4941068;29;20306;-85
2021/04/20 03:29:48;;;;;;;58.38;27.08;;;5.30;99.90;;;;;;4940730;29;20561;-86
2021/04/20 03:32:14;;;;;;;109.63;35.38;;;5.30;99.90;;;;;;4940032;29;20206;-86
2021/04/20 03:34:47;;;;;;;36.58;25.95;;;5.30;99.90;;;;;;4940904;29;20276;-86
2021/04/20 03:37:20;;;;;;;78.97;31.02;;;5.30;99.90;;;;;;4940807;29;20229;-83
2021/04/20 03:39:49;;;;;;;74.40;29.10;;;5.30;99.90;;;;;;4940441;29;20210;-85
2021/04/20 03:42:20;;;;;;;63.28;29.90;;;5.30;99.90;;;;;;4940800;29;20761;-84
2021/04/20 03:44:50;;;;;;;47.45;29.13;;;5.30;99.90;;;;;;4940180;29;20233;-85
2021/04/20 03:47:21;;;;;;;95.75;31.77;;;5.30;99.90;;;;;;4940387;29;20237;-86
2021/04/20 03:49:50;;;;;;;56.20;28.83;;;5.30;99.90;;;;;;4940066;29;20214;-85
2021/04/20 03:52:21;;;;;;;97.35;34.50;;;5.40;99.90;;;;;;4940557;29;20210;-87
2021/04/20 03:54:49;;;;;;;98.78;30.90;;;5.30;99.90;;;;;;4940509;29;20224;-85
2021/04/20 03:57:18;;;;;;;50.67;27.60;;;5.30;99.90;;;;;;4940941;29;20233;-83
2021/04/20 03:59:46;;;;;;;47.30;28.02;;;5.20;99.90;;;;;;4941169;29;20209;-86
2021/04/20 04:02:13;;;;;;;41.22;27.70;;;5.20;99.90;;;;;;4941221;29;20214;-84
2021/04/20 04:04:42;;;;;;;33.75;24.30;;;5.20;99.90;;;;;;4941608;29;20706;-85
2021/04/20 04:07:11;;;;;;;28.50;24.35;;;5.20;99.90;;;;;;4940981;29;20280;-85
2021/04/20 04:09:37;;;;;;;31.45;22.77;;;5.30;99.90;;;;;;4941155;29;20257;-86
2021/04/20 04:12:07;;;;;;;31.10;25.40;;;5.30;99.90;;;;;;4940237;29;20210;-85
2021/04/20 04:14:35;;;;;;;33.45;23.27;;;5.40;99.90;;;;;;4940355;29;20216;-86
2021/04/20 04:17:05;;;;;;;29.63;24.52;;;5.40;99.90;;;;;;4940449;29;20237;-86
2021/04/20 04:19:36;;;;;;;30.40;23.25;;;5.50;99.90;;;;;;4940925;29;20210;-87
2021/04/20 04:22:06;;;;;;;29.95;22.95;;;5.50;99.90;;;;;;4940291;29;20248;-84
2021/04/20 04:24:47;;;;;;;30.73;24.95;;;5.50;99.90;;;;;;4940611;29;20220;-84
2021/04/20 04:27:28;;;;;;;31.70;24.13;;;5.50;99.90;;;;;;4932495;23;540366;-86
2021/04/20 04:43:19;;;;;;;27.45;23.02;;;5.60;99.90;;;;;;4802986;29;20198;-85
2021/04/20 04:45:46;;;;;;;29.10;22.83;;;5.50;99.90;;;;;;4851642;29;20216;-86
2021/04/20 04:48:14;;;;;;;29.25;23.95;;;5.50;99.90;;;;;;4900906;29;20335;-86
2021/04/20 04:50:42;;;;;;;28.38;22.65;;;5.60;99.90;;;;;;4937606;29;20232;-86
2021/04/20 04:53:11;;;;;;;33.47;23.70;;;5.50;99.90;;;;;;4937306;29;20212;-85
2021/04/20 04:55:37;;;;;;;25.20;21.88;;;5.50;99.90;;;;;;4937737;29;20218;-85
2021/04/20 04:58:05;;;;;;;24.52;21.52;;;5.50;99.90;;;;;;4937331;29;20292;-86
2021/04/20 05:00:34;;;;;;;28.08;22.63;;;5.60;99.90;;;;;;4937282;29;20213;-85
2021/04/20 05:03:00;;;;;;;29.73;22.75;;;5.50;99.90;;;;;;4937359;29;20210;-86
2021/04/20 05:05:28;;;;;;;32.22;23.30;;;5.60;99.90;;;;;;4937554;29;20762;-86
2021/04/20 05:07:58;;;;;;;25.80;22.42;;;5.50;99.90;;;;;;4937325;29;20222;-86
2021/04/20 05:10:24;;;;;;;27.08;23.75;;;5.60;99.90;;;;;;4937398;29;20220;-86
2021/04/20 05:12:52;;;;;;;27.23;24.25;;;5.50;99.90;;;;;;4937069;29;20213;-86
2021/04/20 05:15:20;;;;;;;24.90;22.25;;;5.50;99.90;;;;;;4937737;29;20213;-86
2021/04/20 05:17:47;;;;;;;28.58;23.70;;;5.50;99.90;;;;;;4937541;29;20241;-86
2021/04/20 05:20:17;;;;;;;30.67;23.33;;;5.50;99.90;;;;;;4937106;29;20243;-85
2021/04/20 05:22:44;;;;;;;25.05;22.45;;;5.50;99.90;;;;;;4937109;29;20212;-86
2021/04/20 05:25:14;;;;;;;27.42;22.38;;;5.50;99.90;;;;;;4937049;29;20268;-86
2021/04/20 05:27:40;;;;;;;28.83;22.98;;;5.50;99.90;;;;;;4937096;29;20610;-86
2021/04/20 05:30:08;;;;;;;27.05;23.70;;;5.60;99.90;;;;;;4937002;29;20675;-85
2021/04/20 05:32:36;;;;;;;25.38;22.17;;;5.60;99.90;;;;;;4937042;29;20212;-85
2021/04/20 05:35:04;;;;;;;28.13;23.27;;;5.60;99.90;;;;;;4936839;29;20261;-86
2021/04/20 05:37:32;;;;;;;28.58;24.30;;;5.60;99.90;;;;;;4936796;29;20234;-86
2021/04/20 05:40:10;;;;;;;28.65;24.25;;;5.60;99.90;;;;;;4936955;29;20245;-86
2021/04/20 05:42:37;;;;;;;25.63;22.73;;;5.60;99.90;;;;;;4936446;29;20209;-85
2021/04/20 05:45:04;;;;;;;24.83;20.65;;;5.70;99.90;;;;;;4936779;29;20228;-86
2021/04/20 05:47:31;;;;;;;25.40;21.38;;;5.70;99.90;;;;;;4936642;29;20234;-85
2021/04/20 05:50:00;;;;;;;24.63;21.90;;;5.70;99.90;;;;;;4936729;29;20273;-86
2021/04/20 05:52:27;;;;;;;28.50;23.00;;;5.70;99.90;;;;;;4936906;29;20213;-85
2021/04/20 05:54:57;;;;;;;29.77;24.35;;;5.70;99.90;;;;;;4936590;29;20210;-86
2021/04/20 05:57:24;;;;;;;30.00;24.30;;;5.80;99.90;;;;;;4936692;29;20249;-86
2021/04/20 05:59:53;;;;;;;29.60;24.55;;;5.80;99.90;;;;;;4936616;29;20225;-85
2021/04/20 06:02:20;;;;;;;27.58;22.83;;;5.90;99.90;;;;;;4936186;29;20308;-86
2021/04/20 06:04:47;;;;;;;33.80;25.25;;;5.90;99.90;;;;;;4936531;29;20219;-85
2021/04/20 06:07:14;;;;;;;31.20;25.23;;;6.00;99.90;;;;;;4936182;29;20280;-86
2021/04/20 06:09:44;;;;;;;28.90;22.85;;;6.00;99.90;;;;;;4936139;29;20217;-85
2021/04/20 06:12:11;;;;;;;28.98;23.80;;;6.10;99.90;;;;;;4935929;29;20214;-85
2021/04/20 06:14:38;;;;;;;26.58;23.27;;;6.10;99.90;;;;;;4936251;29;20217;-86
2021/04/20 06:17:06;;;;;;;30.73;26.20;;;6.20;99.90;;;;;;4935925;29;20257;-86
2021/04/20 06:19:32;;;;;;;32.33;28.90;;;6.20;99.90;;;;;;4936024;29;20675;-86
2021/04/20 06:21:59;;;;;;;29.67;25.60;;;6.30;99.90;;;;;;4935817;29;20214;-86
2021/04/20 06:24:27;;;;;;;35.40;28.35;;;6.40;99.90;;;;;;4936346;29;20595;-85
2021/04/20 06:26:54;;;;;;;34.65;28.05;;;6.40;99.90;;;;;;4935945;29;20585;-85
2021/04/20 06:29:20;;;;;;;35.30;29.35;;;6.60;99.90;;;;;;4935834;29;20221;-86
2021/04/20 06:31:49;;;;;;;34.53;29.25;;;6.60;99.90;;;;;;4935518;29;20210;-85
2021/04/20 06:34:15;;;;;;;33.50;26.98;;;6.70;99.90;;;;;;4935250;29;20214;-86
2021/04/20 06:36:42;;;;;;;29.40;26.30;;;6.80;99.90;;;;;;4934846;29;20592;-86
2021/04/20 06:39:09;;;;;;;36.42;28.88;;;6.90;99.90;;;;;;4934429;29;20706;-86
2021/04/20 06:41:37;;;;;;;31.83;27.10;;;7.00;99.90;;;;;;4934397;29;20198;-86
2021/04/20 06:44:10;;;;;;;31.80;28.35;;;7.00;99.90;;;;;;4934476;29;20206;-86
2021/04/20 06:46:43;;;;;;;32.97;28.65;;;7.10;99.90;;;;;;4934644;29;20309;-86
2021/04/20 06:49:15;;;;;;;40.85;31.92;;;7.30;99.90;;;;;;4934606;29;20291;-85
2021/04/20 06:51:45;;;;;;;42.35;32.22;;;7.30;99.90;;;;;;4932108;29;20257;-85
2021/04/20 06:54:20;;;;;;;37.80;31.23;;;7.40;99.90;;;;;;4934694;29;20296;-85
2021/04/20 06:56:51;;;;;;;36.97;31.38;;;7.60;99.90;;;;;;4933396;29;20305;-84
2021/04/20 06:59:28;;;;;;;32.80;26.83;;;7.70;99.90;;;;;;4939860;29;20213;-81
2021/04/20 07:02:02;;;;;;;32.58;27.23;;;7.80;99.90;;;;;;4939636;29;20209;-81
2021/04/20 07:04:41;;;;;;;36.38;27.80;;;7.90;99.90;;;;;;4940139;29;20213;-81
2021/04/20 07:07:15;;;;;;;36.28;27.77;;;8.00;99.90;;;;;;4941083;29;20233;-81
2021/04/20 07:09:46;;;;;;;33.67;28.08;;;8.10;99.90;;;;;;4940983;29;20220;-81
2021/04/20 07:12:15;;;;;;;31.75;25.17;;;8.30;99.90;;;;;;4941196;29;20206;-82
2021/04/20 07:14:47;;;;;;;32.45;25.48;;;8.40;99.90;;;;;;4940898;29;20221;-81
2021/04/20 07:17:30;;;;;;;30.77;26.23;;;8.50;99.90;;;;;;4939767;29;20233;-81
2021/04/20 07:20:14;;;;;;;33.55;27.17;;;8.60;99.90;;;;;;4937095;29;20217;-81
2021/04/20 07:23:12;;;;;;;31.75;28.15;;;8.70;99.90;;;;;;4957379;29;20216;-80
2021/04/20 07:26:06;;;;;;;29.00;25.35;;;8.80;99.90;;;;;;4954494;29;20194;-80
2021/04/20 07:28:47;;;;;;;28.73;23.80;;;8.90;99.90;;;;;;4938379;29;20466;-81
2021/04/20 07:31:21;;;;;;;32.03;26.23;;;9.00;99.90;;;;;;4936395;29;20465;-80
2021/04/20 07:34:00;;;;;;;33.67;28.50;;;9.20;99.90;;;;;;4920215;29;20458;-80
2021/04/20 07:36:36;;;;;;;28.33;25.25;;;9.30;99.90;;;;;;4918816;29;20688;-80
2021/04/20 07:39:09;;;;;;;27.20;24.40;;;9.40;99.90;;;;;;4917187;29;20264;-81
2021/04/20 07:41:42;;;;;;;25.73;22.98;;;9.50;99.90;;;;;;4919715;29;20312;-81
2021/04/20 07:44:13;;;;;;;29.17;26.17;;;9.60;99.90;;;;;;4919935;29;20227;-81
2021/04/20 07:46:46;;;;;;;28.50;25.40;;;9.80;99.90;;;;;;4919774;29;20317;-81
2021/04/20 07:49:19;;;;;;;29.17;22.63;;;9.80;99.90;;;;;;4918867;29;20215;-82
2021/04/20 07:51:56;;;;;;;25.10;22.30;;;9.90;99.90;;;;;;4918695;29;20614;-81
2021/04/20 07:54:34;;;;;;;32.55;25.13;;;10.00;99.90;;;;;;4919504;29;20213;-80
2021/04/20 07:57:12;;;;;;;25.45;22.83;;;10.20;99.90;;;;;;4919679;29;20243;-84
2021/04/20 07:59:57;;;;;;;25.17;22.52;;;10.30;99.90;;;;;;4922030;29;20604;-86
2021/04/20 08:02:31;;;;;;;25.20;22.20;;;10.30;99.90;;;;;;4920985;29;20709;-84
2021/04/20 08:05:06;;;;;;;25.38;20.85;;;10.30;99.90;;;;;;4921756;29;20224;-83
2021/04/20 08:07:41;;;;;;;28.02;25.05;;;10.40;99.90;;;;;;4920635;29;20239;-83
2021/04/20 08:10:10;;;;;;;24.85;22.13;;;10.50;99.90;;;;;;4923136;29;20212;-84
2021/04/20 08:12:48;;;;;;;29.07;23.60;;;10.60;99.90;;;;;;4923599;29;20217;-83
2021/04/20 08:15:20;;;;;;;27.47;22.83;;;10.60;99.90;;;;;;4926319;29;20519;-83
2021/04/20 08:17:52;;;;;;;27.17;22.90;;;10.70;99.90;;;;;;4926220;29;20492;-84
2021/04/20 08:20:23;;;;;;;30.13;23.87;;;10.80;99.90;;;;;;4926292;29;20246;-84
2021/04/20 08:22:54;;;;;;;23.40;20.80;;;10.90;99.90;;;;;;4919359;29;20425;-86
2021/04/20 08:25:24;;;;;;;27.02;22.92;;;10.90;99.90;;;;;;4919415;29;20806;-86
2021/04/20 08:27:56;;;;;;;25.47;22.33;;;10.80;99.90;;;;;;4919156;29;20267;-86
2021/04/20 08:30:31;;;;;;;22.87;18.53;;;10.90;99.90;;;;;;4919293;29;20488;-86
2021/04/20 08:32:59;;;;;;;15.37;13.87;;;11.00;99.90;;;;;;4918668;29;20463;-86
2021/04/20 08:35:29;;;;;;;18.43;16.60;;;11.00;99.90;;;;;;4918529;29;20465;-85
2021/04/20 08:38:06;;;;;;;20.20;16.70;;;11.00;99.90;;;;;;4935195;29;20859;-85
2021/04/20 08:40:40;;;;;;;21.53;18.20;;;11.10;99.90;;;;;;4937871;29;20857;-85
2021/04/20 08:43:17;;;;;;;19.13;17.27;;;11.00;99.90;;;;;;4937009;29;20511;-86
2021/04/20 08:45:49;;;;;;;20.50;18.30;;;11.20;99.90;;;;;;4937842;29;20560;-85
2021/04/20 08:48:22;;;;;;;22.60;18.50;;;11.20;99.90;;;;;;4938099;29;20472;-85
2021/04/20 08:50:56;;;;;;;19.10;16.77;;;11.30;99.90;;;;;;4937791;29;20460;-85
2021/04/20 08:53:38;;;;;;;18.63;16.40;;;11.30;99.90;;;;;;4943571;29;20456;-84
2021/04/20 08:56:11;;;;;;;17.67;15.33;;;11.50;99.90;;;;;;4944090;29;21256;-83
2021/04/20 09:08:42;;;;;;;18.47;15.40;;;11.80;99.90;;;;;;4937379;29;21002;-85
2021/04/20 09:11:11;;;;;;;18.83;15.63;;;12.00;99.90;;;;;;4936894;29;20460;-85
2021/04/20 09:13:49;;;;;;;21.80;17.90;;;12.20;99.90;;;;;;4937732;29;20468;-85
2021/04/20 09:16:19;;;;;;;16.07;14.60;;;12.20;99.90;;;;;;4937427;29;20443;-84
2021/04/20 09:18:46;;;;;;;15.30;13.80;;;12.30;99.90;;;;;;4937420;29;20492;-86
2021/04/20 09:21:18;;;;;;;15.77;14.17;;;12.50;99.90;;;;;;4937496;29;20469;-86
2021/04/20 09:24:00;;;;;;;14.73;13.20;;;12.60;99.90;;;;;;4936695;29;20432;-86
2021/04/20 09:26:36;;;;;;;16.00;14.40;;;12.60;99.90;;;;;;4937519;29;20532;-84
2021/04/20 09:29:10;;;;;;;14.47;12.97;;;12.80;99.20;;;;;;4941196;29;20460;-85
2021/04/20 09:31:48;;;;;;;13.37;12.13;;;12.70;98.80;;;;;;4938366;29;20789;-85
2021/04/20 09:34:17;;;;;;;14.80;13.20;;;12.80;99.10;;;;;;4936960;29;20821;-86
2021/04/20 09:36:46;;;;;;;15.47;13.90;;;12.90;97.70;;;;;;4936588;29;21062;-86
2021/04/20 09:39:14;;;;;;;13.87;12.43;;;12.90;97.70;;;;;;4936726;29;20493;-86
2021/04/20 09:41:43;;;;;;;18.60;15.13;;;13.00;97.30;;;;;;4936647;29;20493;-86
2021/04/20 09:44:21;;;;;;;14.17;12.77;;;12.90;97.40;;;;;;4936776;29;20465;-86
2021/04/20 09:47:17;;;;;;;13.53;12.23;;;13.00;97.90;;;;;;4938490;29;20487;-84
2021/04/20 09:49:57;;;;;;;13.57;12.27;;;13.00;97.80;;;;;;4944654;29;20465;-85
2021/04/20 09:52:29;;;;;;;14.77;13.30;;;13.10;98.00;;;;;;4945987;29;20454;-83
2021/04/20 09:55:00;;;;;;;13.53;12.23;;;13.30;97.90;;;;;;4945433;29;20460;-83
2021/04/20 09:57:32;;;;;;;12.43;11.33;;;13.50;98.60;;;;;;4946897;29;20483;-83
2021/04/20 10:00:21;;;;;;;12.37;10.97;;;13.80;98.20;;;;;;4945924;29;20465;-84
2021/04/20 10:02:54;;;;;;;12.43;10.10;;;14.10;96.50;;;;;;4940649;29;20556;-84
2021/04/20 10:06:05;;;;;;;12.00;10.87;;;14.40;95.90;;;;;;4941024;29;20517;-87
2021/04/20 10:08:45;;;;;;;12.63;9.90;;;14.70;95.60;;;;;;4941957;29;20501;-84
2021/04/20 10:11:18;;;;;;;13.93;11.87;;;15.00;94.90;;;;;;4943689;29;20488;-84
2021/04/20 10:14:02;;;;;;;11.57;10.20;;;15.20;93.60;;;;;;4944586;29;20454;-84
2021/04/20 10:17:06;;;;;;;10.50;9.50;;;15.40;94.30;;;;;;4945388;29;20485;-86
2021/04/20 10:19:38;;;;;;;10.57;9.67;;;15.60;92.70;;;;;;4944240;29;20521;-84
2021/04/20 10:22:23;;;;;;;10.93;8.40;;;15.70;90.80;;;;;;4941362;29;20565;-84
2021/04/20 10:25:21;;;;;;;9.80;8.97;;;15.70;90.10;;;;;;4938949;29;20454;-85
2021/04/20 10:30:35;;;;;;;;;;;;;;;;;;;;;
2021/04/20 10:33:57;;;;;;;8.70;7.90;;;16.20;90.90;;;;;;4875721;29;20508;-83
2021/04/20 10:36:25;;;;;;;8.90;8.00;;;16.50;90.20;;;;;;4923881;29;20456;-85
2021/04/20 10:38:53;;;;;;;10.20;8.13;;;16.80;86.30;;;;;;4941210;29;20466;-85
2021/04/20 10:41:27;;;;;;;8.73;7.93;;;17.00;88.10;;;;;;4944245;29;20451;-81
2021/04/20 10:44:03;;;;;;;7.67;7.07;;;17.20;87.50;;;;;;4945524;29;20458;-85
2021/04/20 10:46:32;;;;;;;8.47;7.73;;;17.40;86.90;;;;;;4941307;29;20448;-86
2021/04/20 10:48:59;;;;;;;7.50;6.90;;;17.60;81.50;;;;;;4943167;29;20540;-85
2021/04/20 10:51:31;;;;;;;6.67;6.07;;;17.70;80.30;;;;;;4940563;29;20468;-84
2021/04/20 10:53:58;;;;;;;6.70;6.00;;;17.80;79.50;;;;;;4942613;29;20456;-85
2021/04/20 11:09:17;;;;;;;8.97;8.10;;;18.60;74.10;;;;;;4824175;29;20496;-85
2021/04/20 11:11:48;;;;;;;8.57;7.83;;;19.00;74.80;;;;;;4926074;29;20461;-83
2021/04/20 11:14:38;;;;;;;8.17;7.47;;;19.50;75.70;;;;;;4943912;29;20457;-84
2021/04/20 11:24:21;;;;;;;8.23;7.17;;;21.00;69.40;;;;;;4942430;29;20401;-85
2021/04/20 11:27:13;;;;;;;10.27;9.40;;;21.10;67.50;;;;;;4938843;29;21224;-85
2021/04/20 11:29:57;;;;;;;11.30;10.20;;;21.30;66.00;;;;;;4941546;29;20492;-86
2021/04/20 11:32:37;;;;;;;8.43;7.70;;;21.20;66.40;;;;;;4941281;29;20457;-85
2021/04/20 11:35:13;;;;;;;9.57;8.60;;;21.40;62.50;;;;;;4941061;29;21022;-84
2021/04/20 11:37:59;;;;;;;8.93;8.23;;;21.50;62.10;;;;;;4940758;29;20998;-86
2021/04/20 11:40:31;;;;;;;7.50;6.90;;;21.60;60.10;;;;;;4940744;29;20482;-84
2021/04/20 11:43:05;;;;;;;7.53;6.93;;;22.00;60.50;;;;;;4941695;29;20469;-86
2021/04/20 11:52:59;;;;;;;7.60;7.00;;;23.90;56.90;;;;;;4830157;29;20540;-85
2021/04/20 11:55:34;;;;;;;7.73;7.13;;;24.40;53.30;;;;;;4842279;29;20449;-84
2021/04/20 11:58:04;;;;;;;7.87;7.10;;;24.60;52.00;;;;;;4944915;29;20907;-85
2021/04/20 12:00:38;;;;;;;7.87;7.13;;;24.90;54.10;;;;;;4942176;29;20507;-85
2021/04/20 12:03:21;;;;;;;9.73;8.87;;;25.50;53.20;;;;;;4944482;29;20542;-86
2021/04/20 12:05:53;;;;;;;8.73;7.90;;;26.00;50.80;;;;;;4946417;29;20991;-86
2021/04/20 12:11:46;;;;;;;9.33;8.60;;;26.80;46.90;;;;;;4895294;29;20852;-86
2021/04/20 12:21:00;;;;;;;8.40;7.60;;;26.90;46.00;;;;;;4944088;29;20436;-85
2021/04/20 12:23:33;;;;;;;8.43;7.63;;;27.00;45.10;;;;;;4944851;29;20545;-85
2021/04/20 12:26:26;;;;;;;10.17;9.37;;;26.60;44.10;;;;;;4945260;29;20545;-85
2021/04/20 12:29:08;;;;;;;10.00;9.20;;;26.10;43.50;;;;;;4945777;29;20496;-83
2021/04/20 12:31:59;;;;;;;9.80;8.90;;;25.60;46.00;;;;;;4962119;28;20497;-83
2021/04/20 12:34:56;;;;;;;9.17;8.27;;;25.80;45.90;;;;;;4920347;28;20479;-84
2021/04/20 12:41:22;;;;;;;8.77;8.03;;;25.10;43.90;;;;;;4906661;29;20442;-86
2021/04/20 12:47:07;;;;;;;8.23;7.50;;;25.20;48.20;;;;;;4844740;29;20459;-85
2021/04/20 12:49:36;;;;;;;8.47;7.60;;;26.00;46.10;;;;;;4941739;29;20493;-84
2021/04/20 12:52:07;;;;;;;8.13;7.50;;;26.90;45.50;;;;;;4944621;29;21172;-85
2021/04/20 12:54:37;;;;;;;8.43;7.73;;;27.90;44.30;;;;;;4945926;29;20937;-85
2021/04/20 12:57:06;;;;;;;8.00;7.17;;;28.60;42.30;;;;;;4942737;29;20571;-85
2021/04/20 12:59:35;;;;;;;8.40;7.70;;;29.40;41.80;;;;;;4939058;29;20492;-86
2021/04/20 13:02:02;;;;;;;8.03;7.37;;;30.10;40.00;;;;;;4938866;29;20472;-85
2021/04/20 13:04:31;;;;;;;7.80;7.30;;;30.90;39.00;;;;;;4938568;29;20559;-84
2021/04/20 13:06:59;;;;;;;8.53;7.93;;;31.40;38.10;;;;;;4941737;29;20464;-84
2021/04/20 13:09:30;;;;;;;8.90;8.20;;;31.50;35.70;;;;;;4944962;29;20490;-84
2021/04/20 13:11:58;;;;;;;8.60;8.00;;;31.20;35.20;;;;;;4939002;29;20630;-84
2021/04/20 13:14:43;;;;;;;8.57;7.97;;;30.80;34.20;;;;;;4939422;29;20465;-84
2021/04/20 18:03:09;;;;;;;9.83;9.03;;;21.90;43.70;;;;;;4860166;29;20462;-86
2021/04/20 18:05:41;;;;;;;8.40;7.60;;;21.50;44.70;;;;;;4915418;29;20816;-86
2021/04/20 18:08:16;;;;;;;9.80;8.33;;;21.10;45.30;;;;;;4917061;29;20502;-86
2021/04/20 18:10:54;;;;;;;8.07;7.37;;;20.70;46.20;;;;;;4917419;29;20922;-86
2021/04/20 18:13:26;;;;;;;9.03;8.13;;;20.20;46.80;;;;;;4917412;29;20457;-86
2021/04/20 18:16:10;;;;;;;9.10;8.30;;;19.80;47.20;;;;;;4917958;29;20459;-86
2021/04/20 18:19:01;;;;;;;8.77;8.07;;;19.30;48.10;;;;;;4917476;29;20485;-85
2021/04/20 18:21:39;;;;;;;8.70;8.00;;;18.90;49.60;;;;;;4917182;29;20445;-84
2021/04/20 18:24:19;;;;;;;10.70;9.77;;;18.50;50.00;;;;;;4917664;29;20937;-84
2021/04/20 18:27:18;;;;;;;10.20;9.13;;;18.10;50.70;;;;;;4918493;29;20482;-85
2021/04/20 18:29:57;;;;;;;10.43;9.40;;;17.70;51.40;;;;;;4917647;29;20544;-85
2021/04/20 18:32:31;;;;;;;9.17;8.37;;;17.30;52.50;;;;;;4938854;29;20539;-85
2021/04/20 18:35:11;;;;;;;11.10;10.10;;;17.00;53.30;;;;;;4938050;29;20465;-85
2021/04/20 18:37:51;;;;;;;11.23;10.17;;;16.70;53.80;;;;;;4920849;29;20472;-86
2021/04/20 18:40:23;;;;;;;11.17;10.17;;;16.30;54.20;;;;;;4921549;29;20458;-85
2021/04/20 18:43:09;;;;;;;9.90;8.90;;;16.10;54.90;;;;;;4920702;29;20427;-85
2021/04/20 18:45:46;;;;;;;10.60;9.40;;;15.80;55.60;;;;;;4921214;29;20474;-85
2021/04/20 18:48:20;;;;;;;9.50;8.70;;;15.50;55.90;;;;;;4921872;29;20502;-85
2021/04/20 18:50:55;;;;;;;10.00;8.63;;;15.30;56.70;;;;;;4922276;29;20511;-85
2021/04/20 18:54:02;;;;;;;11.13;10.13;;;15.10;57.20;;;;;;4916625;29;20433;-85
2021/04/20 18:56:37;;;;;;;9.60;8.70;;;15.00;57.90;;;;;;4893849;29;20466;-85
2021/04/20 18:59:15;;;;;;;9.77;8.90;;;14.70;58.60;;;;;;4913349;29;20470;-84